sensor_id;sensor_type;location;lat;lon;timestamp;P1;durP1;ratioP1;P2;durP2;ratioP2
29500;SDS011;16450;50.288;10.966;2022-07-05T00:00:37;1.13;;;1.03;;
29500;SDS011;16450;50.288;10.966;2022-07-05T00:03:38;1.43;;;0.80;;
29500;SDS011;16450;50.288;10.966;2022-07-05T00:06:39;1.03;;;1.00;;
29500;SDS011;16450;50.288;10.966;2022-07-05T00:10:02;3.53;;;1.10;;
29500;SDS011;16450;50.288;10.966;2022-07-05T00:13:04;2.37;;;0.93;;
29500;SDS011;16450;50.288;10.966;2022-07-05T00:16:05;1.57;;;1.00;;
29500;SDS011;16450;50.288;10.966;2022-07-05T00:19:05;1.40;;;1.00;;
29500;SDS011;16450;50.288;10.966;2022-07-05T00:22:06;3.27;;;1.10;;
29500;SDS011;16450;50.288;10.966;2022-07-05T00:25:07;1.10;;;1.00;;
29500;SDS011;16450;50.288;10.966;2022-07-05T00:28:07;1.50;;;0.90;;
29500;SDS011;16450;50.288;10.966;2022-07-05T00:31:08;1.60;;;1.10;;
29500;SDS011;16450;50.288;10.966;2022-07-05T00:34:09;3.30;;;1.07;;
29500;SDS011;16450;50.288;10.966;2022-07-05T00:37:09;1.20;;;1.10;;
29500;SDS011;16450;50.288;10.966;2022-07-05T00:40:10;1.43;;;1.00;;
29500;SDS011;16450;50.288;10.966;2022-07-05T00:43:11;1.63;;;0.90;;
29500;SDS011;16450;50.288;10.966;2022-07-05T00:46:11;4.27;;;1.03;;
29500;SDS011;16450;50.288;10.966;2022-07-05T00:49:12;2.07;;;1.20;;
29500;SDS011;16450;50.288;10.966;2022-07-05T00:52:12;1.20;;;1.10;;
29500;SDS011;16450;50.288;10.966;2022-07-05T00:55:13;1.20;;;1.10;;
29500;SDS011;16450;50.288;10.966;2022-07-05T00:58:15;2.13;;;1.00;;
29500;SDS011;16450;50.288;10.966;2022-07-05T01:01:16;3.10;;;1.00;;
29500;SDS011;16450;50.288;10.966;2022-07-05T01:04:17;1.60;;;1.20;;
29500;SDS011;16450;50.288;10.966;2022-07-05T01:07:19;1.10;;;1.00;;
29500;SDS011;16450;50.288;10.966;2022-07-05T01:10:21;3.70;;;1.20;;
29500;SDS011;16450;50.288;10.966;2022-07-05T01:13:22;2.60;;;1.30;;
29500;SDS011;16450;50.288;10.966;2022-07-05T01:16:24;1.63;;;1.30;;
29500;SDS011;16450;50.288;10.966;2022-07-05T01:19:25;1.47;;;1.20;;
29500;SDS011;16450;50.288;10.966;2022-07-05T01:22:26;1.57;;;1.30;;
29500;SDS011;16450;50.288;10.966;2022-07-05T01:25:28;1.90;;;1.37;;
29500;SDS011;16450;50.288;10.966;2022-07-05T01:28:29;1.37;;;1.20;;
29500;SDS011;16450;50.288;10.966;2022-07-05T01:31:30;1.90;;;1.30;;
29500;SDS011;16450;50.288;10.966;2022-07-05T01:34:31;1.87;;;1.20;;
29500;SDS011;16450;50.288;10.966;2022-07-05T01:37:31;2.30;;;1.20;;
29500;SDS011;16450;50.288;10.966;2022-07-05T01:40:32;3.50;;;1.20;;
29500;SDS011;16450;50.288;10.966;2022-07-05T01:43:33;2.00;;;1.60;;
29500;SDS011;16450;50.288;10.966;2022-07-05T01:46:34;2.33;;;1.40;;
29500;SDS011;16450;50.288;10.966;2022-07-05T01:49:40;2.07;;;1.60;;
29500;SDS011;16450;50.288;10.966;2022-07-05T01:52:43;1.77;;;1.37;;
29500;SDS011;16450;50.288;10.966;2022-07-05T01:55:46;1.30;;;1.20;;
29500;SDS011;16450;50.288;10.966;2022-07-05T01:58:47;1.40;;;1.30;;
29500;SDS011;16450;50.288;10.966;2022-07-05T02:01:48;1.50;;;1.40;;
29500;SDS011;16450;50.288;10.966;2022-07-05T02:04:49;1.50;;;1.33;;
29500;SDS011;16450;50.288;10.966;2022-07-05T02:07:49;1.73;;;1.53;;
29500;SDS011;16450;50.288;10.966;2022-07-05T02:10:50;2.30;;;1.60;;
29500;SDS011;16450;50.288;10.966;2022-07-05T02:13:51;1.60;;;1.50;;
29500;SDS011;16450;50.288;10.966;2022-07-05T02:16:51;1.43;;;1.30;;
29500;SDS011;16450;50.288;10.966;2022-07-05T02:19:52;1.60;;;1.50;;
29500;SDS011;16450;50.288;10.966;2022-07-05T02:22:52;3.47;;;1.57;;
29500;SDS011;16450;50.288;10.966;2022-07-05T02:25:53;1.57;;;1.40;;
29500;SDS011;16450;50.288;10.966;2022-07-05T02:28:54;1.80;;;1.47;;
29500;SDS011;16450;50.288;10.966;2022-07-05T02:31:54;2.23;;;1.53;;
29500;SDS011;16450;50.288;10.966;2022-07-05T02:34:55;2.40;;;1.50;;
29500;SDS011;16450;50.288;10.966;2022-07-05T02:37:56;1.40;;;1.30;;
29500;SDS011;16450;50.288;10.966;2022-07-05T02:40:57;2.33;;;1.60;;
29500;SDS011;16450;50.288;10.966;2022-07-05T02:43:57;1.53;;;1.30;;
29500;SDS011;16450;50.288;10.966;2022-07-05T02:46:58;1.90;;;1.30;;
29500;SDS011;16450;50.288;10.966;2022-07-05T02:49:59;1.97;;;1.53;;
29500;SDS011;16450;50.288;10.966;2022-07-05T02:53:03;1.70;;;1.57;;
29500;SDS011;16450;50.288;10.966;2022-07-05T02:56:04;3.63;;;1.70;;
29500;SDS011;16450;50.288;10.966;2022-07-05T02:59:05;2.20;;;1.60;;
29500;SDS011;16450;50.288;10.966;2022-07-05T03:02:05;1.40;;;1.30;;
29500;SDS011;16450;50.288;10.966;2022-07-05T03:05:06;2.50;;;1.53;;
29500;SDS011;16450;50.288;10.966;2022-07-05T03:08:07;2.00;;;1.50;;
29500;SDS011;16450;50.288;10.966;2022-07-05T03:11:07;3.20;;;1.50;;
29500;SDS011;16450;50.288;10.966;2022-07-05T03:14:08;1.50;;;1.40;;
29500;SDS011;16450;50.288;10.966;2022-07-05T03:17:09;2.17;;;1.57;;
29500;SDS011;16450;50.288;10.966;2022-07-05T03:20:09;2.37;;;1.37;;
29500;SDS011;16450;50.288;10.966;2022-07-05T03:23:10;1.67;;;1.43;;
29500;SDS011;16450;50.288;10.966;2022-07-05T03:26:11;1.40;;;1.30;;
29500;SDS011;16450;50.288;10.966;2022-07-05T03:29:12;1.50;;;1.40;;
29500;SDS011;16450;50.288;10.966;2022-07-05T03:32:12;4.27;;;1.40;;
29500;SDS011;16450;50.288;10.966;2022-07-05T03:35:13;5.33;;;1.50;;
29500;SDS011;16450;50.288;10.966;2022-07-05T03:38:14;2.60;;;1.40;;
29500;SDS011;16450;50.288;10.966;2022-07-05T03:41:14;1.40;;;1.30;;
29500;SDS011;16450;50.288;10.966;2022-07-05T03:44:15;1.43;;;1.33;;
29500;SDS011;16450;50.288;10.966;2022-07-05T03:47:16;1.70;;;1.60;;
29500;SDS011;16450;50.288;10.966;2022-07-05T03:50:16;1.67;;;1.57;;
29500;SDS011;16450;50.288;10.966;2022-07-05T03:53:17;5.90;;;1.90;;
29500;SDS011;16450;50.288;10.966;2022-07-05T03:56:18;1.53;;;1.43;;
29500;SDS011;16450;50.288;10.966;2022-07-05T03:59:22;2.43;;;1.90;;
29500;SDS011;16450;50.288;10.966;2022-07-05T04:02:23;3.57;;;1.70;;
29500;SDS011;16450;50.288;10.966;2022-07-05T04:05:23;3.67;;;2.03;;
29500;SDS011;16450;50.288;10.966;2022-07-05T04:08:24;2.43;;;1.67;;
29500;SDS011;16450;50.288;10.966;2022-07-05T04:11:24;3.13;;;1.90;;
29500;SDS011;16450;50.288;10.966;2022-07-05T04:14:25;5.53;;;2.07;;
29500;SDS011;16450;50.288;10.966;2022-07-05T04:17:26;3.87;;;1.80;;
29500;SDS011;16450;50.288;10.966;2022-07-05T04:20:26;3.20;;;1.90;;
29500;SDS011;16450;50.288;10.966;2022-07-05T04:23:27;5.27;;;3.40;;
29500;SDS011;16450;50.288;10.966;2022-07-05T04:26:28;5.20;;;3.20;;
29500;SDS011;16450;50.288;10.966;2022-07-05T04:29:28;4.47;;;2.27;;
29500;SDS011;16450;50.288;10.966;2022-07-05T04:32:29;4.17;;;2.00;;
29500;SDS011;16450;50.288;10.966;2022-07-05T04:35:30;5.37;;;1.93;;
29500;SDS011;16450;50.288;10.966;2022-07-05T04:38:30;2.53;;;1.90;;
29500;SDS011;16450;50.288;10.966;2022-07-05T04:41:31;2.70;;;2.07;;
29500;SDS011;16450;50.288;10.966;2022-07-05T04:44:32;3.10;;;2.13;;
29500;SDS011;16450;50.288;10.966;2022-07-05T04:47:33;2.97;;;2.40;;
29500;SDS011;16450;50.288;10.966;2022-07-05T04:50:34;3.83;;;2.20;;
29500;SDS011;16450;50.288;10.966;2022-07-05T04:53:34;4.73;;;2.60;;
29500;SDS011;16450;50.288;10.966;2022-07-05T04:56:35;7.83;;;2.83;;
29500;SDS011;16450;50.288;10.966;2022-07-05T04:59:36;10.77;;;2.60;;
29500;SDS011;16450;50.288;10.966;2022-07-05T05:02:36;8.80;;;2.90;;
29500;SDS011;16450;50.288;10.966;2022-07-05T05:05:37;6.20;;;2.60;;
29500;SDS011;16450;50.288;10.966;2022-07-05T05:08:38;7.73;;;2.37;;
29500;SDS011;16450;50.288;10.966;2022-07-05T05:11:38;7.73;;;2.30;;
29500;SDS011;16450;50.288;10.966;2022-07-05T05:14:39;5.22;;;1.73;;
29500;SDS011;16450;50.288;10.966;2022-07-05T05:17:40;8.13;;;1.80;;
29500;SDS011;16450;50.288;10.966;2022-07-05T05:20:42;9.38;;;1.98;;
29500;SDS011;16450;50.288;10.966;2022-07-05T05:23:43;3.60;;;1.60;;
29500;SDS011;16450;50.288;10.966;2022-07-05T05:26:43;4.05;;;1.77;;
29500;SDS011;16450;50.288;10.966;2022-07-05T05:29:44;3.17;;;1.65;;
29500;SDS011;16450;50.288;10.966;2022-07-05T05:32:45;4.15;;;1.40;;
29500;SDS011;16450;50.288;10.966;2022-07-05T05:35:46;5.47;;;1.55;;
29500;SDS011;16450;50.288;10.966;2022-07-05T05:38:47;2.90;;;1.25;;
29500;SDS011;16450;50.288;10.966;2022-07-05T05:41:48;4.05;;;1.63;;
29500;SDS011;16450;50.288;10.966;2022-07-05T05:44:48;4.03;;;1.50;;
29500;SDS011;16450;50.288;10.966;2022-07-05T05:47:53;18.65;;;2.38;;
29500;SDS011;16450;50.288;10.966;2022-07-05T05:50:57;16.85;;;2.15;;
29500;SDS011;16450;50.288;10.966;2022-07-05T05:53:59;22.80;;;3.22;;
29500;SDS011;16450;50.288;10.966;2022-07-05T05:57:00;23.85;;;3.00;;
29500;SDS011;16450;50.288;10.966;2022-07-05T06:00:02;8.93;;;2.30;;
29500;SDS011;16450;50.288;10.966;2022-07-05T06:03:04;8.18;;;1.60;;
29500;SDS011;16450;50.288;10.966;2022-07-05T06:06:05;3.90;;;1.45;;
29500;SDS011;16450;50.288;10.966;2022-07-05T06:09:05;4.25;;;1.48;;
29500;SDS011;16450;50.288;10.966;2022-07-05T06:12:06;3.92;;;1.63;;
29500;SDS011;16450;50.288;10.966;2022-07-05T06:15:07;7.10;;;1.50;;
29500;SDS011;16450;50.288;10.966;2022-07-05T06:18:08;7.55;;;1.77;;
29500;SDS011;16450;50.288;10.966;2022-07-05T06:21:10;10.30;;;1.58;;
29500;SDS011;16450;50.288;10.966;2022-07-05T06:24:11;4.47;;;1.20;;
29500;SDS011;16450;50.288;10.966;2022-07-05T06:27:11;8.55;;;1.20;;
29500;SDS011;16450;50.288;10.966;2022-07-05T06:30:16;6.70;;;1.27;;
29500;SDS011;16450;50.288;10.966;2022-07-05T06:33:17;3.88;;;1.10;;
29500;SDS011;16450;50.288;10.966;2022-07-05T06:36:19;3.92;;;1.10;;
29500;SDS011;16450;50.288;10.966;2022-07-05T06:39:19;6.18;;;1.05;;
29500;SDS011;16450;50.288;10.966;2022-07-05T06:42:20;1.85;;;0.82;;
29500;SDS011;16450;50.288;10.966;2022-07-05T06:45:21;1.38;;;0.60;;
29500;SDS011;16450;50.288;10.966;2022-07-05T06:48:22;3.42;;;0.80;;
29500;SDS011;16450;50.288;10.966;2022-07-05T06:51:23;2.28;;;0.80;;
29500;SDS011;16450;50.288;10.966;2022-07-05T06:54:23;1.70;;;0.77;;
29500;SDS011;16450;50.288;10.966;2022-07-05T06:57:24;3.45;;;0.90;;
29500;SDS011;16450;50.288;10.966;2022-07-05T07:00:26;3.97;;;0.70;;
29500;SDS011;16450;50.288;10.966;2022-07-05T07:03:27;8.70;;;1.13;;
29500;SDS011;16450;50.288;10.966;2022-07-05T07:06:27;8.02;;;0.82;;
29500;SDS011;16450;50.288;10.966;2022-07-05T07:09:28;4.00;;;1.08;;
29500;SDS011;16450;50.288;10.966;2022-07-05T07:12:29;4.03;;;1.00;;
29500;SDS011;16450;50.288;10.966;2022-07-05T07:15:30;4.55;;;0.70;;
29500;SDS011;16450;50.288;10.966;2022-07-05T07:18:31;2.17;;;0.63;;
29500;SDS011;16450;50.288;10.966;2022-07-05T07:21:32;1.40;;;0.70;;
29500;SDS011;16450;50.288;10.966;2022-07-05T07:24:33;1.48;;;0.70;;
29500;SDS011;16450;50.288;10.966;2022-07-05T07:28:07;4.95;;;0.70;;
29500;SDS011;16450;50.288;10.966;2022-07-05T07:31:00;4.72;;;0.60;;
29500;SDS011;16450;50.288;10.966;2022-07-05T07:34:01;1.67;;;0.50;;
29500;SDS011;16450;50.288;10.966;2022-07-05T07:37:02;1.08;;;0.68;;
29500;SDS011;16450;50.288;10.966;2022-07-05T07:40:03;1.55;;;0.65;;
29500;SDS011;16450;50.288;10.966;2022-07-05T07:43:05;0.93;;;0.63;;
29500;SDS011;16450;50.288;10.966;2022-07-05T07:46:05;0.93;;;0.70;;
29500;SDS011;16450;50.288;10.966;2022-07-05T07:49:07;2.05;;;0.60;;
29500;SDS011;16450;50.288;10.966;2022-07-05T07:52:08;0.60;;;0.50;;
29500;SDS011;16450;50.288;10.966;2022-07-05T07:55:08;2.10;;;0.60;;
29500;SDS011;16450;50.288;10.966;2022-07-05T07:58:09;0.73;;;0.55;;
29500;SDS011;16450;50.288;10.966;2022-07-05T08:01:10;3.60;;;0.70;;
29500;SDS011;16450;50.288;10.966;2022-07-05T08:04:12;0.75;;;0.50;;
29500;SDS011;16450;50.288;10.966;2022-07-05T08:07:13;0.60;;;0.60;;
29500;SDS011;16450;50.288;10.966;2022-07-05T08:10:14;2.35;;;0.80;;
29500;SDS011;16450;50.288;10.966;2022-07-05T08:13:14;0.85;;;0.50;;
29500;SDS011;16450;50.288;10.966;2022-07-05T08:16:15;1.35;;;0.60;;
29500;SDS011;16450;50.288;10.966;2022-07-05T08:19:16;1.55;;;0.70;;
29500;SDS011;16450;50.288;10.966;2022-07-05T08:22:36;1.65;;;0.93;;
29500;SDS011;16450;50.288;10.966;2022-07-05T08:25:37;1.15;;;0.52;;
29500;SDS011;16450;50.288;10.966;2022-07-05T08:28:37;1.02;;;0.50;;
29500;SDS011;16450;50.288;10.966;2022-07-05T08:31:48;3.17;;;0.80;;
29500;SDS011;16450;50.288;10.966;2022-07-05T08:34:49;1.35;;;0.50;;
29500;SDS011;16450;50.288;10.966;2022-07-05T08:37:50;1.02;;;0.77;;
29500;SDS011;16450;50.288;10.966;2022-07-05T08:40:51;0.88;;;0.75;;
29500;SDS011;16450;50.288;10.966;2022-07-05T08:43:54;1.58;;;0.88;;
29500;SDS011;16450;50.288;10.966;2022-07-05T08:46:57;0.73;;;0.55;;
29500;SDS011;16450;50.288;10.966;2022-07-05T08:49:58;0.63;;;0.55;;
29500;SDS011;16450;50.288;10.966;2022-07-05T08:52:59;2.00;;;0.88;;
29500;SDS011;16450;50.288;10.966;2022-07-05T08:56:01;0.80;;;0.50;;
29500;SDS011;16450;50.288;10.966;2022-07-05T08:59:02;1.70;;;0.60;;
29500;SDS011;16450;50.288;10.966;2022-07-05T09:02:03;1.50;;;0.55;;
29500;SDS011;16450;50.288;10.966;2022-07-05T09:05:05;3.05;;;0.80;;
29500;SDS011;16450;50.288;10.966;2022-07-05T09:08:06;3.20;;;0.68;;
29500;SDS011;16450;50.288;10.966;2022-07-05T09:11:11;1.25;;;0.60;;
29500;SDS011;16450;50.288;10.966;2022-07-05T09:14:20;4.03;;;0.85;;
29500;SDS011;16450;50.288;10.966;2022-07-05T09:17:22;1.33;;;0.57;;
29500;SDS011;16450;50.288;10.966;2022-07-05T09:20:23;1.00;;;0.60;;
29500;SDS011;16450;50.288;10.966;2022-07-05T09:23:27;0.55;;;0.32;;
29500;SDS011;16450;50.288;10.966;2022-07-05T09:26:31;4.88;;;0.73;;
29500;SDS011;16450;50.288;10.966;2022-07-05T09:29:36;1.23;;;0.60;;
29500;SDS011;16450;50.288;10.966;2022-07-05T09:32:36;1.67;;;0.52;;
29500;SDS011;16450;50.288;10.966;2022-07-05T09:35:37;0.80;;;0.52;;
29500;SDS011;16450;50.288;10.966;2022-07-05T09:38:39;1.67;;;0.82;;
29500;SDS011;16450;50.288;10.966;2022-07-05T09:41:52;1.65;;;0.70;;
29500;SDS011;16450;50.288;10.966;2022-07-05T09:45:09;0.50;;;0.50;;
29500;SDS011;16450;50.288;10.966;2022-07-05T09:48:10;1.20;;;0.55;;
29500;SDS011;16450;50.288;10.966;2022-07-05T09:51:12;3.88;;;0.65;;
29500;SDS011;16450;50.288;10.966;2022-07-05T09:54:13;1.42;;;0.80;;
29500;SDS011;16450;50.288;10.966;2022-07-05T09:57:24;2.22;;;0.85;;
29500;SDS011;16450;50.288;10.966;2022-07-05T10:00:25;1.95;;;0.50;;
29500;SDS011;16450;50.288;10.966;2022-07-05T10:03:29;1.38;;;0.57;;
29500;SDS011;16450;50.288;10.966;2022-07-05T10:06:31;1.77;;;0.75;;
29500;SDS011;16450;50.288;10.966;2022-07-05T10:09:32;1.88;;;0.73;;
29500;SDS011;16450;50.288;10.966;2022-07-05T10:12:34;3.67;;;0.80;;
29500;SDS011;16450;50.288;10.966;2022-07-05T10:15:36;1.85;;;0.63;;
29500;SDS011;16450;50.288;10.966;2022-07-05T10:18:37;1.70;;;0.95;;
29500;SDS011;16450;50.288;10.966;2022-07-05T10:21:38;0.47;;;0.47;;
29500;SDS011;16450;50.288;10.966;2022-07-05T10:24:40;2.25;;;0.60;;
29500;SDS011;16450;50.288;10.966;2022-07-05T10:27:42;1.38;;;0.75;;
29500;SDS011;16450;50.288;10.966;2022-07-05T10:30:49;0.55;;;0.55;;
29500;SDS011;16450;50.288;10.966;2022-07-05T10:33:50;1.58;;;0.70;;
29500;SDS011;16450;50.288;10.966;2022-07-05T10:36:51;1.70;;;0.82;;
29500;SDS011;16450;50.288;10.966;2022-07-05T10:39:52;3.30;;;0.77;;
29500;SDS011;16450;50.288;10.966;2022-07-05T10:42:58;2.40;;;0.60;;
29500;SDS011;16450;50.288;10.966;2022-07-05T10:46:01;1.77;;;0.60;;
29500;SDS011;16450;50.288;10.966;2022-07-05T10:49:09;2.22;;;0.57;;
29500;SDS011;16450;50.288;10.966;2022-07-05T10:52:21;1.33;;;0.70;;
29500;SDS011;16450;50.288;10.966;2022-07-05T10:55:25;2.22;;;0.77;;
29500;SDS011;16450;50.288;10.966;2022-07-05T10:58:27;1.15;;;0.65;;
29500;SDS011;16450;50.288;10.966;2022-07-05T11:01:32;3.13;;;0.80;;
29500;SDS011;16450;50.288;10.966;2022-07-05T11:04:34;1.55;;;0.50;;
29500;SDS011;16450;50.288;10.966;2022-07-05T11:11:11;2.20;;;0.70;;
29500;SDS011;16450;50.288;10.966;2022-07-05T11:17:20;1.13;;;0.50;;
29500;SDS011;16450;50.288;10.966;2022-07-05T11:20:28;2.53;;;0.80;;
29500;SDS011;16450;50.288;10.966;2022-07-05T11:23:30;1.40;;;0.60;;
29500;SDS011;16450;50.288;10.966;2022-07-05T11:26:31;2.17;;;0.60;;
29500;SDS011;16450;50.288;10.966;2022-07-05T11:32:41;1.58;;;0.68;;
29500;SDS011;16450;50.288;10.966;2022-07-05T11:35:42;0.93;;;0.52;;
29500;SDS011;16450;50.288;10.966;2022-07-05T11:42:20;2.13;;;0.70;;
29500;SDS011;16450;50.288;10.966;2022-07-05T11:45:21;3.20;;;0.90;;
29500;SDS011;16450;50.288;10.966;2022-07-05T11:48:22;3.17;;;0.98;;
29500;SDS011;16450;50.288;10.966;2022-07-05T11:51:24;1.65;;;0.68;;
29500;SDS011;16450;50.288;10.966;2022-07-05T11:54:25;2.40;;;0.68;;
29500;SDS011;16450;50.288;10.966;2022-07-05T11:57:27;1.15;;;0.68;;
29500;SDS011;16450;50.288;10.966;2022-07-05T12:00:37;1.00;;;0.70;;
29500;SDS011;16450;50.288;10.966;2022-07-05T12:03:37;0.55;;;0.55;;
29500;SDS011;16450;50.288;10.966;2022-07-05T12:06:42;1.83;;;0.50;;
29500;SDS011;16450;50.288;10.966;2022-07-05T12:09:42;4.38;;;0.95;;
29500;SDS011;16450;50.288;10.966;2022-07-05T12:13:08;2.30;;;0.80;;
29500;SDS011;16450;50.288;10.966;2022-07-05T12:16:10;2.78;;;0.90;;
29500;SDS011;16450;50.288;10.966;2022-07-05T12:19:11;2.35;;;0.85;;
29500;SDS011;16450;50.288;10.966;2022-07-05T12:22:31;1.33;;;0.80;;
29500;SDS011;16450;50.288;10.966;2022-07-05T12:25:33;1.33;;;0.90;;
29500;SDS011;16450;50.288;10.966;2022-07-05T12:28:35;1.02;;;0.80;;
29500;SDS011;16450;50.288;10.966;2022-07-05T12:31:36;1.95;;;0.88;;
29500;SDS011;16450;50.288;10.966;2022-07-05T12:34:37;1.00;;;0.65;;
29500;SDS011;16450;50.288;10.966;2022-07-05T12:37:38;3.03;;;0.77;;
29500;SDS011;16450;50.288;10.966;2022-07-05T12:40:47;1.25;;;0.70;;
29500;SDS011;16450;50.288;10.966;2022-07-05T12:43:53;2.35;;;0.80;;
29500;SDS011;16450;50.288;10.966;2022-07-05T12:47:03;0.85;;;0.73;;
29500;SDS011;16450;50.288;10.966;2022-07-05T12:50:05;4.55;;;0.75;;
29500;SDS011;16450;50.288;10.966;2022-07-05T12:53:06;3.85;;;0.80;;
29500;SDS011;16450;50.288;10.966;2022-07-05T12:56:29;3.63;;;1.33;;
29500;SDS011;16450;50.288;10.966;2022-07-05T13:03:00;1.13;;;0.70;;
29500;SDS011;16450;50.288;10.966;2022-07-05T13:06:01;2.15;;;0.70;;
29500;SDS011;16450;50.288;10.966;2022-07-05T13:09:02;7.40;;;1.23;;
29500;SDS011;16450;50.288;10.966;2022-07-05T13:12:07;2.47;;;0.90;;
29500;SDS011;16450;50.288;10.966;2022-07-05T13:15:10;1.45;;;0.68;;
29500;SDS011;16450;50.288;10.966;2022-07-05T13:18:12;2.33;;;0.80;;
29500;SDS011;16450;50.288;10.966;2022-07-05T13:21:25;4.63;;;0.80;;
29500;SDS011;16450;50.288;10.966;2022-07-05T13:24:26;1.17;;;0.68;;
29500;SDS011;16450;50.288;10.966;2022-07-05T13:27:27;12.27;;;1.20;;
29500;SDS011;16450;50.288;10.966;2022-07-05T13:30:27;11.38;;;1.40;;
29500;SDS011;16450;50.288;10.966;2022-07-05T13:33:28;1.70;;;0.80;;
29500;SDS011;16450;50.288;10.966;2022-07-05T13:36:29;1.08;;;0.63;;
29500;SDS011;16450;50.288;10.966;2022-07-05T13:39:29;1.85;;;0.70;;
29500;SDS011;16450;50.288;10.966;2022-07-05T13:42:30;3.42;;;0.73;;
29500;SDS011;16450;50.288;10.966;2022-07-05T13:45:31;3.58;;;0.60;;
29500;SDS011;16450;50.288;10.966;2022-07-05T13:48:32;1.48;;;0.70;;
29500;SDS011;16450;50.288;10.966;2022-07-05T13:51:33;3.65;;;0.70;;
29500;SDS011;16450;50.288;10.966;2022-07-05T13:54:34;2.05;;;0.65;;
29500;SDS011;16450;50.288;10.966;2022-07-05T13:57:35;1.33;;;0.60;;
29500;SDS011;16450;50.288;10.966;2022-07-05T14:00:35;7.20;;;0.80;;
29500;SDS011;16450;50.288;10.966;2022-07-05T14:03:36;3.22;;;0.50;;
29500;SDS011;16450;50.288;10.966;2022-07-05T14:06:36;1.83;;;0.70;;
29500;SDS011;16450;50.288;10.966;2022-07-05T14:09:37;2.92;;;0.70;;
29500;SDS011;16450;50.288;10.966;2022-07-05T14:12:38;1.27;;;0.80;;
29500;SDS011;16450;50.288;10.966;2022-07-05T14:15:39;0.68;;;0.50;;
29500;SDS011;16450;50.288;10.966;2022-07-05T14:18:39;2.25;;;0.65;;
29500;SDS011;16450;50.288;10.966;2022-07-05T14:21:40;0.98;;;0.80;;
29500;SDS011;16450;50.288;10.966;2022-07-05T14:24:45;0.98;;;0.68;;
29500;SDS011;16450;50.288;10.966;2022-07-05T14:27:45;1.92;;;0.60;;
29500;SDS011;16450;50.288;10.966;2022-07-05T14:30:46;0.70;;;0.70;;
29500;SDS011;16450;50.288;10.966;2022-07-05T14:33:47;2.53;;;0.70;;
29500;SDS011;16450;50.288;10.966;2022-07-05T14:36:48;1.35;;;0.60;;
29500;SDS011;16450;50.288;10.966;2022-07-05T14:39:48;1.95;;;0.60;;
29500;SDS011;16450;50.288;10.966;2022-07-05T14:42:52;2.45;;;0.70;;
29500;SDS011;16450;50.288;10.966;2022-07-05T14:45:53;3.92;;;0.80;;
29500;SDS011;16450;50.288;10.966;2022-07-05T14:48:56;0.95;;;0.70;;
29500;SDS011;16450;50.288;10.966;2022-07-05T14:51:56;1.88;;;0.70;;
29500;SDS011;16450;50.288;10.966;2022-07-05T14:54:57;0.95;;;0.70;;
29500;SDS011;16450;50.288;10.966;2022-07-05T14:57:58;0.77;;;0.77;;
29500;SDS011;16450;50.288;10.966;2022-07-05T15:00:59;1.00;;;0.70;;
29500;SDS011;16450;50.288;10.966;2022-07-05T15:03:59;0.70;;;0.68;;
29500;SDS011;16450;50.288;10.966;2022-07-05T15:07:00;3.00;;;1.88;;
29500;SDS011;16450;50.288;10.966;2022-07-05T15:10:01;3.58;;;1.10;;
29500;SDS011;16450;50.288;10.966;2022-07-05T15:13:01;0.90;;;0.82;;
29500;SDS011;16450;50.288;10.966;2022-07-05T15:16:02;1.45;;;0.95;;
29500;SDS011;16450;50.288;10.966;2022-07-05T15:19:06;1.58;;;1.02;;
29500;SDS011;16450;50.288;10.966;2022-07-05T15:22:07;1.00;;;0.80;;
29500;SDS011;16450;50.288;10.966;2022-07-05T15:25:10;0.80;;;0.60;;
29500;SDS011;16450;50.288;10.966;2022-07-05T15:28:10;1.88;;;0.88;;
29500;SDS011;16450;50.288;10.966;2022-07-05T15:31:11;3.38;;;0.90;;
29500;SDS011;16450;50.288;10.966;2022-07-05T15:34:12;1.25;;;0.73;;
29500;SDS011;16450;50.288;10.966;2022-07-05T15:37:12;2.25;;;0.85;;
29500;SDS011;16450;50.288;10.966;2022-07-05T15:40:13;3.90;;;1.00;;
29500;SDS011;16450;50.288;10.966;2022-07-05T15:43:13;2.92;;;0.90;;
29500;SDS011;16450;50.288;10.966;2022-07-05T15:46:14;0.85;;;0.70;;
29500;SDS011;16450;50.288;10.966;2022-07-05T15:49:16;2.30;;;1.02;;
29500;SDS011;16450;50.288;10.966;2022-07-05T15:52:17;1.13;;;0.75;;
29500;SDS011;16450;50.288;10.966;2022-07-05T15:55:17;0.95;;;0.85;;
29500;SDS011;16450;50.288;10.966;2022-07-05T15:58:18;4.03;;;0.82;;
29500;SDS011;16450;50.288;10.966;2022-07-05T16:01:20;3.03;;;1.05;;
29500;SDS011;16450;50.288;10.966;2022-07-05T16:04:20;1.70;;;0.93;;
29500;SDS011;16450;50.288;10.966;2022-07-05T16:07:21;2.92;;;1.00;;
29500;SDS011;16450;50.288;10.966;2022-07-05T16:10:22;2.05;;;0.90;;
29500;SDS011;16450;50.288;10.966;2022-07-05T16:13:23;7.00;;;1.00;;
29500;SDS011;16450;50.288;10.966;2022-07-05T16:16:24;3.22;;;1.00;;
29500;SDS011;16450;50.288;10.966;2022-07-05T16:19:26;2.45;;;0.90;;
29500;SDS011;16450;50.288;10.966;2022-07-05T16:22:26;1.40;;;0.90;;
29500;SDS011;16450;50.288;10.966;2022-07-05T16:25:27;1.75;;;0.88;;
29500;SDS011;16450;50.288;10.966;2022-07-05T16:28:28;1.58;;;1.00;;
29500;SDS011;16450;50.288;10.966;2022-07-05T16:31:34;1.20;;;1.00;;
29500;SDS011;16450;50.288;10.966;2022-07-05T16:34:35;2.47;;;1.00;;
29500;SDS011;16450;50.288;10.966;2022-07-05T16:37:35;1.35;;;0.90;;
29500;SDS011;16450;50.288;10.966;2022-07-05T16:40:36;1.08;;;0.85;;
29500;SDS011;16450;50.288;10.966;2022-07-05T16:43:37;1.55;;;1.00;;
29500;SDS011;16450;50.288;10.966;2022-07-05T16:46:38;2.10;;;0.98;;
29500;SDS011;16450;50.288;10.966;2022-07-05T16:49:38;1.30;;;0.82;;
29500;SDS011;16450;50.288;10.966;2022-07-05T16:52:39;0.80;;;0.80;;
29500;SDS011;16450;50.288;10.966;2022-07-05T16:55:41;1.23;;;0.80;;
29500;SDS011;16450;50.288;10.966;2022-07-05T16:58:46;1.42;;;1.00;;
29500;SDS011;16450;50.288;10.966;2022-07-05T17:01:48;1.23;;;1.10;;
29500;SDS011;16450;50.288;10.966;2022-07-05T17:04:49;2.15;;;1.10;;
29500;SDS011;16450;50.288;10.966;2022-07-05T17:07:50;2.90;;;1.23;;
29500;SDS011;16450;50.288;10.966;2022-07-05T17:10:51;1.20;;;1.10;;
29500;SDS011;16450;50.288;10.966;2022-07-05T17:13:52;1.17;;;0.77;;
29500;SDS011;16450;50.288;10.966;2022-07-05T17:16:53;3.75;;;1.15;;
29500;SDS011;16450;50.288;10.966;2022-07-05T17:19:53;2.78;;;1.10;;
29500;SDS011;16450;50.288;10.966;2022-07-05T17:22:54;1.73;;;1.00;;
29500;SDS011;16450;50.288;10.966;2022-07-05T17:25:54;1.30;;;1.00;;
29500;SDS011;16450;50.288;10.966;2022-07-05T17:28:55;4.90;;;1.10;;
29500;SDS011;16450;50.288;10.966;2022-07-05T17:31:56;4.13;;;1.10;;
29500;SDS011;16450;50.288;10.966;2022-07-05T17:34:57;2.80;;;1.30;;
29500;SDS011;16450;50.288;10.966;2022-07-05T17:37:58;2.22;;;1.08;;
29500;SDS011;16450;50.288;10.966;2022-07-05T17:40:59;7.53;;;1.40;;
29500;SDS011;16450;50.288;10.966;2022-07-05T17:43:59;4.75;;;1.25;;
29500;SDS011;16450;50.288;10.966;2022-07-05T17:47:00;1.67;;;1.10;;
29500;SDS011;16450;50.288;10.966;2022-07-05T17:50:00;1.58;;;1.17;;
29500;SDS011;16450;50.288;10.966;2022-07-05T17:53:01;1.90;;;1.17;;
29500;SDS011;16450;50.288;10.966;2022-07-05T17:56:02;6.72;;;1.35;;
29500;SDS011;16450;50.288;10.966;2022-07-05T17:59:03;12.48;;;1.88;;
29500;SDS011;16450;50.288;10.966;2022-07-05T18:02:03;5.60;;;1.40;;
29500;SDS011;16450;50.288;10.966;2022-07-05T18:05:04;1.73;;;0.98;;
29500;SDS011;16450;50.288;10.966;2022-07-05T18:08:05;2.13;;;1.05;;
29500;SDS011;16450;50.288;10.966;2022-07-05T18:11:06;3.05;;;1.20;;
29500;SDS011;16450;50.288;10.966;2022-07-05T18:14:06;11.27;;;1.35;;